Time;durP1;ratioP1;P1;durP2;ratioP2;P2;SDS_P1;SDS_P2;PMS_P1;PMS_P2;Temp;Humidity;BMP_temperature;BMP_pressure;BME280_temperature;BME280_humidity;BME280_pressure;Samples;Min_cycle;Max_cycle;Signal;HPM_P1;HPM_P2
2022/11/03 00:02:23;;;;;;;;;;;;;;;11.43;100.00;101168.00;5569881;32;34785;-70
2022/11/03 00:08:56;;;;;;;;;;;;;;;11.26;100.00;101166.22;5586900;31;34811;-71
2022/11/03 00:12:03;;;;;;;;;;;;;;;11.23;100.00;101150.59;5589311;31;34570;-70
2022/11/03 00:15:10;;;;;;;;;;;;;;;11.14;100.00;101162.94;5589541;31;34826;-69
2022/11/03 00:18:18;;;;;;;;;;;;;;;11.09;100.00;101167.03;5589309;31;34754;-69
2022/11/03 00:21:23;;;;;;;;;;;;;;;10.97;100.00;101154.97;5589117;31;34687;-70
2022/11/03 00:24:30;;;;;;;;;;;;;;;10.91;100.00;101161.72;5590478;31;34745;-69
2022/11/03 00:27:38;;;;;;;;;;;;;;;10.83;100.00;101162.50;5591455;31;34522;-70
2022/11/03 00:30:45;;;;;;;;;;;;;;;10.73;100.00;101163.53;5591508;31;34665;-70
2022/11/03 00:33:54;;;;;;;;;;;;;;;10.64;100.00;101151.16;5578258;31;34258;-69
2022/11/03 00:37:01;;;;;;;;;;;;;;;10.66;100.00;101159.78;5591466;31;34307;-70
2022/11/03 00:40:09;;;;;;;;;;;;;;;10.58;100.00;101157.91;5591468;31;34623;-69
2022/11/03 00:43:16;;;;;;;;;;;;;;;10.59;100.00;101148.97;5591718;31;34640;-70
2022/11/03 00:46:23;;;;;;;;;;;;;;;10.44;100.00;101139.84;5591384;31;34302;-70
2022/11/03 00:49:29;;;;;;;;;;;;;;;10.41;100.00;101143.59;5564811;31;34084;-70
2022/11/03 00:52:36;;;;;;;;;;;;;;;10.39;100.00;101152.69;5591195;31;34286;-69
2022/11/03 00:55:48;;;;;;;;;;;;;;;10.43;100.00;101146.13;5591423;31;34635;-69
2022/11/03 00:58:54;;;;;;;;;;;;;;;10.47;100.00;101142.19;5591324;31;34690;-69
2022/11/03 01:02:01;;;;;;;;;;;;;;;10.38;100.00;101151.03;5591227;31;34546;-69
2022/11/03 01:08:33;;;;;;;;;;;;;;;10.50;100.00;101146.38;5590946;31;34784;-70
2022/11/03 01:11:42;;;;;;;;;;;;;;;10.74;100.00;101146.63;5591137;31;34814;-70
2022/11/03 01:14:52;;;;;;;;;;;;;;;10.82;100.00;101144.06;5591061;31;34205;-69
2022/11/03 01:17:58;;;;;;;;;;;;;;;10.93;100.00;101140.34;5591107;31;34205;-70
2022/11/03 01:21:07;;;;;;;;;;;;;;;10.91;100.00;101145.78;5577008;31;35073;-70
2022/11/03 01:24:11;;;;;;;;;;;;;;;10.91;100.00;101148.44;5591431;31;34782;-70
2022/11/03 01:27:21;;;;;;;;;;;;;;;10.80;100.00;101138.87;5591035;31;34325;-70
2022/11/03 01:30:27;;;;;;;;;;;;;;;10.86;100.00;101148.06;5591033;31;34110;-70
2022/11/03 01:33:37;;;;;;;;;;;;;;;10.81;100.00;101147.69;5590823;31;34856;-69
2022/11/03 01:36:44;;;;;;;;;;;;;;;10.97;100.00;101145.19;5590431;31;34562;-70
2022/11/03 01:39:53;;;;;;;;;;;;;;;10.86;100.00;101135.63;5576981;31;35053;-69
2022/11/03 01:43:13;;;;;;;;;;;;;;;10.89;100.00;101137.97;5577354;31;34167;-70
2022/11/03 01:46:22;;;;;;;;;;;;;;;10.96;100.00;101135.56;5590829;31;34716;-70
2022/11/03 01:49:40;;;;;;;;;;;;;;;10.92;100.00;101139.50;5590808;31;34338;-69
2022/11/03 01:52:52;;;;;;;;;;;;;;;10.83;100.00;101125.34;5590751;31;34109;-70
2022/11/03 01:56:01;;;;;;;;;;;;;;;10.77;100.00;101117.97;5590847;31;34840;-70
2022/11/03 01:59:10;;;;;;;;;;;;;;;10.71;100.00;101129.19;5564438;31;35088;-70
2022/11/03 02:02:18;;;;;;;;;;;;;;;10.58;100.00;101111.97;5590716;31;34518;-69
2022/11/03 02:05:27;;;;;;;;;;;;;;;10.60;100.00;101104.69;5576638;31;34387;-70
2022/11/03 02:08:37;;;;;;;;;;;;;;;10.58;100.00;101118.09;5590472;31;34201;-70
2022/11/03 02:15:09;;;;;;;;;;;;;;;10.57;100.00;101111.13;5590811;31;34752;-70
2022/11/03 02:18:17;;;;;;;;;;;;;;;10.49;100.00;101113.69;5590639;31;34128;-69
2022/11/03 02:21:30;;;;;;;;;;;;;;;10.43;100.00;101111.63;5590544;31;34490;-70
2022/11/03 02:24:47;;;;;;;;;;;;;;;10.40;100.00;101117.25;5590528;31;34752;-70
2022/11/03 02:28:01;;;;;;;;;;;;;;;10.22;100.00;101119.00;5590654;31;34858;-70
2022/11/03 02:31:30;;;;;;;;;;;;;;;10.08;100.00;101112.34;5590413;31;34123;-69
2022/11/03 02:34:57;;;;;;;;;;;;;;;9.92;100.00;101126.22;5590556;31;34508;-69
2022/11/03 02:38:04;;;;;;;;;;;;;;;9.92;100.00;101120.91;5576932;31;34230;-69
2022/11/03 02:41:13;;;;;;;;;;;;;;;9.59;100.00;101119.62;5590429;31;34099;-69
2022/11/03 02:44:19;;;;;;;;;;;;;;;9.44;100.00;101126.34;5590395;31;34775;-69
2022/11/03 02:47:29;;;;;;;;;;;;;;;9.29;100.00;101119.00;5589258;31;34625;-69
2022/11/03 02:50:35;;;;;;;;;;;;;;;9.16;100.00;101119.28;5590257;31;34843;-69
2022/11/03 02:54:02;;;;;;;;;;;;;;;9.04;100.00;101115.97;5590103;31;34106;-69
2022/11/03 02:57:14;;;;;;;;;;;;;;;8.97;100.00;101116.62;5590315;31;34133;-69
2022/11/03 03:00:22;;;;;;;;;;;;;;;9.07;100.00;101115.66;5590369;31;34173;-69
2022/11/03 03:03:31;;;;;;;;;;;;;;;8.93;100.00;101118.75;5590184;31;34356;-70
2022/11/03 03:06:41;;;;;;;;;;;;;;;9.38;100.00;101129.59;5589921;31;34251;-69
2022/11/03 03:09:57;;;;;;;;;;;;;;;9.50;100.00;101124.94;5576820;31;34526;-70
2022/11/03 03:13:05;;;;;;;;;;;;;;;9.31;100.00;101125.81;5576116;31;34778;-69
2022/11/03 03:16:23;;;;;;;;;;;;;;;9.14;100.00;101134.47;5590068;31;34149;-69
2022/11/03 03:19:41;;;;;;;;;;;;;;;8.90;100.00;101137.56;5576656;31;34610;-69
2022/11/03 03:22:55;;;;;;;;;;;;;;;8.82;100.00;101137.38;5589966;31;34261;-69
2022/11/03 03:26:09;;;;;;;;;;;;;;;8.75;100.00;101135.44;5590032;31;34390;-70
2022/11/03 03:29:16;;;;;;;;;;;;;;;8.49;100.00;101146.53;5575984;31;34125;-69
2022/11/03 03:32:24;;;;;;;;;;;;;;;8.32;100.00;101133.97;5589997;31;34916;-69
2022/11/03 03:35:31;;;;;;;;;;;;;;;8.18;100.00;101134.31;5589800;31;34544;-69
2022/11/03 03:38:41;;;;;;;;;;;;;;;8.05;100.00;101133.69;5576490;31;34536;-69
2022/11/03 03:41:47;;;;;;;;;;;;;;;7.93;100.00;101134.75;5575821;31;33796;-69
2022/11/03 03:44:56;;;;;;;;;;;;;;;7.85;100.00;101130.12;5575788;31;34870;-69
2022/11/03 03:48:03;;;;;;;;;;;;;;;7.74;100.00;101128.44;5589752;31;34765;-69
2022/11/03 03:51:11;;;;;;;;;;;;;;;7.66;100.00;101132.66;5575460;31;34475;-69
2022/11/03 03:54:17;;;;;;;;;;;;;;;7.57;100.00;101133.44;5589864;31;34246;-69
2022/11/03 03:57:24;;;;;;;;;;;;;;;7.56;100.00;101126.50;5575519;31;34320;-69
2022/11/03 04:00:33;;;;;;;;;;;;;;;7.51;100.00;101128.69;5589195;31;34560;-69
2022/11/03 04:03:42;;;;;;;;;;;;;;;7.45;100.00;101143.25;5589496;31;34223;-68
2022/11/03 04:07:45;;;;;;;;;;;;;;;7.36;100.00;101130.81;5523966;31;1650399;-68
2022/11/03 04:10:16;;;;;;;;;;;;;;;7.31;100.00;101127.75;5589454;31;34129;-70
2022/11/03 04:23:39;;;;;;;;;;;;;;;7.88;100.00;101129.88;5589221;31;34533;-69
2022/11/03 04:26:47;;;;;;;;;;;;;;;7.94;100.00;101120.59;5589017;31;34347;-69
2022/11/03 04:30:11;;;;;;;;;;;;;;;8.16;100.00;101131.78;5588933;31;34010;-69
2022/11/03 04:33:17;;;;;;;;;;;;;;;8.25;100.00;101125.69;5589125;31;34767;-69
2022/11/03 04:36:24;;;;;;;;;;;;;;;8.32;100.00;101127.84;5588822;31;34579;-70
2022/11/03 04:39:30;;;;;;;;;;;;;;;8.20;100.00;101138.47;5588792;31;34298;-69
2022/11/03 04:42:37;;;;;;;;;;;;;;;8.06;100.00;101135.37;5588788;31;34212;-69
2022/11/03 04:45:44;;;;;;;;;;;;;;;7.86;100.00;101132.63;5588757;31;34693;-69
2022/11/03 04:48:57;;;;;;;;;;;;;;;7.69;100.00;101135.06;5574977;31;34130;-69
2022/11/03 04:52:02;;;;;;;;;;;;;;;7.60;100.00;101134.03;5588693;31;34607;-70
2022/11/03 04:55:12;;;;;;;;;;;;;;;7.51;100.00;101123.41;5588537;31;34821;-69
2022/11/03 04:58:20;;;;;;;;;;;;;;;7.46;100.00;101128.22;5588532;31;34183;-69
2022/11/03 05:01:28;;;;;;;;;;;;;;;7.51;100.00;101124.25;5588454;31;34202;-69
2022/11/03 05:04:33;;;;;;;;;;;;;;;7.48;100.00;101135.06;5588443;31;34777;-69
2022/11/03 05:07:45;;;;;;;;;;;;;;;7.56;100.00;101129.13;5587829;31;34099;-69
2022/11/03 05:10:51;;;;;;;;;;;;;;;7.59;100.00;101131.53;5589168;31;34754;-69
2022/11/03 05:14:01;;;;;;;;;;;;;;;7.70;100.00;101132.28;5590988;31;34269;-69
2022/11/03 05:17:25;;;;;;;;;;;;;;;7.63;100.00;101127.66;5577817;31;34555;-69
2022/11/03 05:20:35;;;;;;;;;;;;;;;7.51;100.00;101144.53;5591033;31;34563;-69
2022/11/03 05:23:47;;;;;;;;;;;;;;;7.47;100.00;101143.13;5576959;31;34148;-69
2022/11/03 05:26:54;;;;;;;;;;;;;;;7.40;100.00;101137.53;5590987;31;34193;-69
2022/11/03 05:30:00;;;;;;;;;;;;;;;7.31;100.00;101141.75;5576675;31;32941;-69
2022/11/03 05:33:18;;;;;;;;;;;;;;;7.25;100.00;101142.28;5578066;31;34114;-69
2022/11/03 05:36:27;;;;;;;;;;;;;;;7.26;100.00;101151.84;5590798;31;34152;-69
2022/11/03 05:39:38;;;;;;;;;;;;;;;7.28;100.00;101147.31;5590692;31;34196;-69
2022/11/03 05:42:49;;;;;;;;;;;;;;;7.35;100.00;101163.47;5591094;31;34861;-69
2022/11/03 05:46:00;;;;;;;;;;;;;;;7.43;100.00;101171.56;5590684;31;34281;-69
2022/11/03 05:49:07;;;;;;;;;;;;;;;7.36;100.00;101173.03;5577093;31;34607;-70
2022/11/03 05:52:20;;;;;;;;;;;;;;;7.37;100.00;101177.34;5590655;31;34733;-69
2022/11/03 05:55:33;;;;;;;;;;;;;;;7.33;100.00;101184.72;5576966;31;34202;-69
2022/11/03 05:58:42;;;;;;;;;;;;;;;7.28;100.00;101176.34;5590438;31;34297;-69
2022/11/03 06:01:46;;;;;;;;;;;;;;;7.29;100.00;101183.28;5590582;31;34636;-69
2022/11/03 06:04:52;;;;;;;;;;;;;;;7.29;100.00;101190.38;5576788;31;34131;-70
2022/11/03 06:08:00;;;;;;;;;;;;;;;7.24;100.00;101197.81;5590438;31;34446;-69
2022/11/03 06:11:09;;;;;;;;;;;;;;;7.29;100.00;101200.94;5590521;31;34281;-69
2022/11/03 06:14:19;;;;;;;;;;;;;;;7.34;100.00;101194.31;5590738;31;34679;-69
2022/11/03 06:17:27;;;;;;;;;;;;;;;7.44;100.00;101202.31;5590422;31;34747;-70
2022/11/03 06:20:33;;;;;;;;;;;;;;;7.49;100.00;101208.03;5590164;31;34662;-69
2022/11/03 06:23:41;;;;;;;;;;;;;;;7.58;100.00;101199.34;5591055;31;34772;-69
2022/11/03 06:26:45;;;;;;;;;;;;;;;7.63;100.00;101197.16;5590301;31;34788;-70
2022/11/03 06:29:56;;;;;;;;;;;;;;;7.72;100.00;101195.53;5575982;31;34415;-70
2022/11/03 06:33:08;;;;;;;;;;;;;;;7.83;100.00;101200.75;5576184;31;34130;-69
2022/11/03 06:36:15;;;;;;;;;;;;;;;7.96;100.00;101204.03;5589997;31;34205;-70
2022/11/03 06:39:22;;;;;;;;;;;;;;;8.09;100.00;101201.16;5577188;31;32846;-68
2022/11/03 06:42:29;;;;;;;;;;;;;;;8.31;100.00;101202.84;5590026;31;34206;-69
2022/11/03 06:45:33;;;;;;;;;;;;;;;8.39;100.00;101203.00;5576534;31;34717;-69
2022/11/03 06:48:38;;;;;;;;;;;;;;;8.78;100.00;101201.28;5589321;31;34193;-69
2022/11/03 06:51:41;;;;;;;;;;;;;;;8.94;100.00;101209.56;5589537;31;34850;-69
2022/11/03 06:54:46;;;;;;;;;;;;;;;9.04;100.00;101219.19;5588611;31;34331;-69
2022/11/03 06:58:09;;;;;;;;;;;;;;;9.11;100.00;101214.16;5589546;31;34877;-69
2022/11/03 07:01:14;;;;;;;;;;;;;;;9.18;100.00;101225.88;5589762;31;34338;-69
2022/11/03 07:04:22;;;;;;;;;;;;;;;9.28;100.00;101224.06;5589759;31;34251;-69
2022/11/03 07:07:26;;;;;;;;;;;;;;;9.44;100.00;101228.81;5575743;31;34325;-70
2022/11/03 07:10:31;;;;;;;;;;;;;;;9.57;100.00;101222.25;5576318;31;34641;-69
2022/11/03 07:13:35;;;;;;;;;;;;;;;9.78;100.00;101229.22;5589900;31;34868;-69
2022/11/03 07:16:43;;;;;;;;;;;;;;;9.97;100.00;101232.63;5575399;31;35055;-69
2022/11/03 07:19:46;;;;;;;;;;;;;;;10.08;100.00;101241.41;5576102;31;33941;-70
2022/11/03 07:22:51;;;;;;;;;;;;;;;10.15;100.00;101234.56;5589663;31;34792;-69
2022/11/03 07:25:57;;;;;;;;;;;;;;;9.90;100.00;101234.19;5589413;31;34538;-69
2022/11/03 07:29:01;;;;;;;;;;;;;;;9.83;100.00;101240.19;5575982;31;34864;-69
2022/11/03 07:32:18;;;;;;;;;;;;;;;10.03;100.00;101239.19;5589766;31;34383;-70
2022/11/03 07:35:21;;;;;;;;;;;;;;;10.45;100.00;101242.31;5589188;31;34793;-70
2022/11/03 07:38:25;;;;;;;;;;;;;;;10.68;100.00;101242.75;5589642;31;34262;-70
2022/11/03 07:41:31;;;;;;;;;;;;;;;10.68;100.00;101237.44;5589467;31;34292;-69
2022/11/03 07:44:38;;;;;;;;;;;;;;;10.85;100.00;101229.53;5589170;31;34258;-69
2022/11/03 07:47:42;;;;;;;;;;;;;;;11.10;100.00;101238.59;5589434;31;34308;-69
2022/11/03 07:50:54;;;;;;;;;;;;;;;11.27;100.00;101231.62;5575344;31;34212;-70
2022/11/03 07:54:04;;;;;;;;;;;;;;;11.49;100.00;101235.62;5589303;31;34225;-69
2022/11/03 07:57:18;;;;;;;;;;;;;;;11.48;100.00;101239.28;5589316;31;34582;-71
2022/11/03 08:00:25;;;;;;;;;;;;;;;11.62;100.00;101230.75;5589091;31;34806;-69
2022/11/03 08:03:41;;;;;;;;;;;;;;;11.60;100.00;101230.09;5589069;31;34833;-69
2022/11/03 08:06:45;;;;;;;;;;;;;;;11.39;100.00;101230.41;5575298;31;34597;-69
2022/11/03 08:09:52;;;;;;;;;;;;;;;11.57;100.00;101233.87;5589201;31;34213;-69
2022/11/03 08:12:57;;;;;;;;;;;;;;;11.67;100.00;101226.66;5589137;31;34594;-69
2022/11/03 08:16:01;;;;;;;;;;;;;;;11.87;100.00;101223.84;5575120;31;34614;-69
2022/11/03 08:19:04;;;;;;;;;;;;;;;11.75;100.00;101225.94;5589555;31;34206;-69
2022/11/03 08:22:08;;;;;;;;;;;;;;;11.67;100.00;101228.47;5588804;31;34200;-69
2022/11/03 08:25:11;;;;;;;;;;;;;;;11.66;100.00;101226.84;5575089;31;33943;-70
2022/11/03 08:28:14;;;;;;;;;;;;;;;11.55;100.00;101217.28;5574847;31;33932;-69
2022/11/03 08:31:17;;;;;;;;;;;;;;;11.65;100.00;101217.19;5574564;31;32359;-70
2022/11/03 08:34:21;;;;;;;;;;;;;;;11.81;100.00;101220.00;5588715;31;34732;-71
2022/11/03 08:37:24;;;;;;;;;;;;;;;11.58;100.00;101216.13;5588846;31;34443;-71
2022/11/03 08:40:27;;;;;;;;;;;;;;;11.38;100.00;101212.78;5588916;31;34826;-70
2022/11/03 08:43:31;;;;;;;;;;;;;;;11.78;100.00;101212.31;5588601;31;34891;-70
2022/11/03 08:46:34;;;;;;;;;;;;;;;11.84;100.00;101206.37;5591032;31;34239;-71
2022/11/03 08:49:36;;;;;;;;;;;;;;;11.81;100.00;101201.41;5577069;31;34455;-71
2022/11/03 08:52:40;;;;;;;;;;;;;;;12.00;100.00;101209.16;5590704;31;34882;-70
2022/11/03 08:55:42;;;;;;;;;;;;;;;11.67;100.00;101209.87;5590754;31;34778;-71
2022/11/03 08:58:46;;;;;;;;;;;;;;;11.87;100.00;101202.56;5564491;31;35153;-71
2022/11/03 09:01:49;;;;;;;;;;;;;;;12.02;100.00;101206.31;5590967;31;34194;-69
2022/11/03 09:04:53;;;;;;;;;;;;;;;12.09;100.00;101196.75;5590907;31;34285;-72
2022/11/03 09:07:56;;;;;;;;;;;;;;;11.90;100.00;101197.78;5590823;31;33944;-70
2022/11/03 09:11:20;;;;;;;;;;;;;;;12.00;100.00;101187.88;5579471;31;34859;-71
2022/11/03 09:14:22;;;;;;;;;;;;;;;11.97;100.00;101192.66;5591171;31;34247;-71
2022/11/03 09:17:25;;;;;;;;;;;;;;;11.68;100.00;101184.97;5576957;31;35136;-70
2022/11/03 09:20:29;;;;;;;;;;;;;;;11.82;100.00;101187.09;5590602;31;34542;-71
2022/11/03 09:23:34;;;;;;;;;;;;;;;11.74;100.00;101190.53;5576632;31;34647;-70
2022/11/03 09:26:38;;;;;;;;;;;;;;;11.76;100.00;101183.22;5576888;31;34731;-70
2022/11/03 09:29:43;;;;;;;;;;;;;;;11.76;100.00;101187.72;5576893;31;34681;-70
2022/11/03 09:33:07;;;;;;;;;;;;;;;11.87;100.00;101184.78;5590729;31;34570;-70
2022/11/03 09:36:10;;;;;;;;;;;;;;;12.07;100.00;101175.63;5590534;31;34157;-70
2022/11/03 09:39:14;;;;;;;;;;;;;;;12.23;100.00;101177.53;5563884;31;34098;-72
2022/11/03 09:42:19;;;;;;;;;;;;;;;12.12;100.00;101170.66;5590938;31;34863;-71
2022/11/03 09:45:23;;;;;;;;;;;;;;;12.01;100.00;101172.75;5590634;31;34153;-70
2022/11/03 09:48:27;;;;;;;;;;;;;;;12.17;100.00;101172.84;5590393;31;34580;-70
2022/11/03 09:51:31;;;;;;;;;;;;;;;12.31;100.00;101163.41;5576707;31;34126;-70
2022/11/03 09:54:34;;;;;;;;;;;;;;;12.49;100.00;101164.19;5590391;31;34749;-70
2022/11/03 09:57:39;;;;;;;;;;;;;;;12.59;100.00;101157.69;5590125;31;34606;-71
2022/11/03 10:00:44;;;;;;;;;;;;;;;12.68;100.00;101152.41;5576996;31;34798;-70
2022/11/03 10:03:47;;;;;;;;;;;;;;;12.68;100.00;101157.75;5576631;31;34359;-70
2022/11/03 10:06:50;;;;;;;;;;;;;;;12.57;100.00;101154.38;5577620;31;36364;-71
2022/11/03 10:09:55;;;;;;;;;;;;;;;12.42;100.00;101150.66;5590686;31;34140;-70
2022/11/03 10:13:01;;;;;;;;;;;;;;;12.53;100.00;101139.75;5576719;31;34959;-70
2022/11/03 10:16:05;;;;;;;;;;;;;;;12.52;100.00;101138.06;5576151;31;34306;-70
2022/11/03 10:19:15;;;;;;;;;;;;;;;12.57;100.00;101146.41;5589911;31;34119;-70
2022/11/03 10:22:19;;;;;;;;;;;;;;;12.28;100.00;101139.81;5576629;31;34701;-70
2022/11/03 10:25:40;;;;;;;;;;;;;;;12.12;100.00;101127.25;5589795;31;34851;-70
2022/11/03 10:28:58;;;;;;;;;;;;;;;12.36;100.00;101118.53;5590123;31;34524;-68
2022/11/03 10:32:01;;;;;;;;;;;;;;;12.27;100.00;101122.16;5590134;31;34347;-69
2022/11/03 10:35:24;;;;;;;;;;;;;;;12.23;100.00;101104.87;5576348;31;34291;-70
2022/11/03 10:38:27;;;;;;;;;;;;;;;11.91;100.00;101109.03;5563194;31;35555;-69
2022/11/03 10:41:31;;;;;;;;;;;;;;;12.11;100.00;101104.31;5576511;31;34727;-69
2022/11/03 10:44:34;;;;;;;;;;;;;;;12.23;100.00;101091.56;5576387;31;34230;-69
2022/11/03 10:47:37;;;;;;;;;;;;;;;12.29;100.00;101082.94;5575870;31;33745;-70
2022/11/03 10:50:41;;;;;;;;;;;;;;;12.01;100.00;101091.13;5590317;31;34779;-69
2022/11/03 10:53:46;;;;;;;;;;;;;;;11.90;100.00;101086.12;5563585;31;33475;-68
2022/11/03 10:56:50;;;;;;;;;;;;;;;12.09;100.00;101075.22;5590019;31;34945;-69
2022/11/03 10:59:54;;;;;;;;;;;;;;;12.17;100.00;101077.06;5590326;31;34628;-69
2022/11/03 11:02:59;;;;;;;;;;;;;;;12.09;100.00;101067.25;5589783;31;34584;-70
2022/11/03 11:06:03;;;;;;;;;;;;;;;12.01;100.00;101077.00;5590302;31;35398;-68
2022/11/03 11:09:09;;;;;;;;;;;;;;;11.96;100.00;101058.03;5588417;31;33993;-69
2022/11/03 11:12:17;;;;;;;;;;;;;;;11.98;100.00;101056.06;5575682;31;34571;-70
2022/11/03 11:15:40;;;;;;;;;;;;;;;12.08;100.00;101043.47;5589864;31;34229;-69
2022/11/03 11:18:44;;;;;;;;;;;;;;;11.98;100.00;101035.62;5589942;31;34700;-69
2022/11/03 11:21:48;;;;;;;;;;;;;;;12.10;100.00;101026.34;5575935;31;34414;-70
2022/11/03 11:24:56;;;;;;;;;;;;;;;11.94;100.00;101028.97;5589585;31;34819;-69
2022/11/03 11:28:10;;;;;;;;;;;;;;;11.92;100.00;101024.78;5575805;31;32735;-69
2022/11/03 11:31:26;;;;;;;;;;;;;;;12.13;100.00;101012.75;5589782;31;34263;-69
2022/11/03 11:34:35;;;;;;;;;;;;;;;12.13;100.00;101020.72;5575592;31;34417;-68
2022/11/03 11:37:40;;;;;;;;;;;;;;;12.24;100.00;101013.44;5575774;31;35538;-69
2022/11/03 11:40:50;;;;;;;;;;;;;;;12.25;100.00;101005.25;5575520;31;35123;-69
2022/11/03 11:44:13;;;;;;;;;;;;;;;12.05;100.00;101002.06;5575879;31;34396;-69
2022/11/03 11:47:23;;;;;;;;;;;;;;;12.13;100.00;100998.59;5589524;31;34146;-69
2022/11/03 11:50:30;;;;;;;;;;;;;;;12.05;100.00;100988.75;5575825;31;34924;-69
2022/11/03 11:53:37;;;;;;;;;;;;;;;12.18;100.00;100985.66;5575418;31;34737;-69
2022/11/03 11:56:44;;;;;;;;;;;;;;;12.09;100.00;100982.16;5589217;31;34582;-69
2022/11/03 11:59:48;;;;;;;;;;;;;;;12.18;100.00;100975.00;5575322;31;34476;-69
2022/11/03 12:02:52;;;;;;;;;;;;;;;12.18;100.00;100978.50;5575574;31;35098;-69
2022/11/03 12:05:55;;;;;;;;;;;;;;;12.19;100.00;100969.53;5589401;31;34167;-69
2022/11/03 12:09:04;;;;;;;;;;;;;;;12.11;100.00;100956.19;5575343;31;34957;-68
2022/11/03 12:12:08;;;;;;;;;;;;;;;12.23;100.00;100953.25;5589270;31;34873;-68
2022/11/03 12:15:29;;;;;;;;;;;;;;;12.34;100.00;100948.44;5589443;31;34257;-68
2022/11/03 12:18:34;;;;;;;;;;;;;;;12.44;100.00;100954.41;5562144;31;34803;-68
2022/11/03 12:21:46;;;;;;;;;;;;;;;12.37;100.00;100950.75;5575715;31;34241;-68
2022/11/03 12:24:55;;;;;;;;;;;;;;;12.33;100.00;100951.25;5575422;31;34851;-68
2022/11/03 12:27:58;;;;;;;;;;;;;;;12.23;100.00;100938.09;5575187;31;35605;-68
2022/11/03 12:31:01;;;;;;;;;;;;;;;12.28;100.00;100933.13;5588947;31;34352;-70
2022/11/03 12:34:04;;;;;;;;;;;;;;;12.38;100.00;100933.81;5589083;31;34618;-71
2022/11/03 12:37:07;;;;;;;;;;;;;;;12.25;100.00;100924.66;5589042;31;34869;-68
2022/11/03 12:40:12;;;;;;;;;;;;;;;12.25;100.00;100920.12;5574342;31;34698;-69
2022/11/03 12:43:14;;;;;;;;;;;;;;;12.29;100.00;100915.34;5574539;31;33994;-69
2022/11/03 12:46:18;;;;;;;;;;;;;;;12.36;100.00;100918.97;5574642;31;34034;-70
2022/11/03 12:49:21;;;;;;;;;;;;;;;12.27;100.00;100906.69;5588679;31;34842;-68
2022/11/03 12:52:23;;;;;;;;;;;;;;;12.24;100.00;100912.34;5588472;31;34077;-67
2022/11/03 12:55:27;;;;;;;;;;;;;;;12.08;100.00;100905.19;5574805;31;34709;-68
2022/11/03 12:58:34;;;;;;;;;;;;;;;12.18;100.00;100905.84;5588505;31;34780;-68
2022/11/03 13:01:37;;;;;;;;;;;;;;;12.24;100.00;100907.84;5588254;31;34202;-69
2022/11/03 13:04:40;;;;;;;;;;;;;;;12.04;100.00;100907.34;5588334;31;34251;-69
2022/11/03 13:07:43;;;;;;;;;;;;;;;12.20;100.00;100902.00;5587937;31;34321;-70
2022/11/03 13:10:46;;;;;;;;;;;;;;;11.97;100.00;100898.34;5574564;31;34816;-69
2022/11/03 13:13:49;;;;;;;;;;;;;;;11.72;100.00;100900.12;5573683;31;34797;-69
2022/11/03 13:16:52;;;;;;;;;;;;;;;11.77;100.00;100903.12;5588394;31;34787;-69
2022/11/03 13:19:55;;;;;;;;;;;;;;;11.90;100.00;100896.50;5587966;31;34633;-70
2022/11/03 13:22:59;;;;;;;;;;;;;;;11.61;100.00;100899.56;5587771;31;34768;-69
2022/11/03 13:26:03;;;;;;;;;;;;;;;11.70;100.00;100893.28;5587896;31;34758;-69
2022/11/03 13:29:06;;;;;;;;;;;;;;;11.73;100.00;100890.31;5588196;31;34527;-69
2022/11/03 13:32:09;;;;;;;;;;;;;;;11.82;100.00;100885.84;5575115;31;34633;-69
2022/11/03 13:35:12;;;;;;;;;;;;;;;11.67;100.00;100891.75;5563652;31;34117;-69
2022/11/03 13:38:16;;;;;;;;;;;;;;;11.75;100.00;100888.34;5590807;31;34112;-69
2022/11/03 13:41:20;;;;;;;;;;;;;;;11.82;100.00;100885.84;5576631;31;34226;-69
2022/11/03 13:44:23;;;;;;;;;;;;;;;11.76;100.00;100879.38;5590813;31;34087;-70
2022/11/03 13:47:26;;;;;;;;;;;;;;;11.69;100.00;100873.84;5590763;31;34132;-70
2022/11/03 13:50:52;;;;;;;;;;;;;;;11.62;100.00;100864.84;5576350;31;33935;-69
2022/11/03 13:53:56;;;;;;;;;;;;;;;11.50;100.00;100870.63;5590480;31;34175;-69
2022/11/03 13:57:21;;;;;;;;;;;;;;;11.44;100.00;100871.28;5576373;31;34478;-69
2022/11/03 14:00:44;;;;;;;;;;;;;;;11.40;100.00;100878.75;5590950;31;34213;-68
2022/11/03 14:03:48;;;;;;;;;;;;;;;11.29;100.00;100871.88;5590604;31;34164;-68
2022/11/03 14:07:11;;;;;;;;;;;;;;;11.45;100.00;100873.78;5589696;31;34840;-68
2022/11/03 14:10:15;;;;;;;;;;;;;;;11.37;100.00;100878.25;5576547;31;34987;-68
2022/11/03 14:13:19;;;;;;;;;;;;;;;11.30;100.00;100864.75;5590259;31;34058;-67
2022/11/03 14:16:24;;;;;;;;;;;;;;;11.34;100.00;100864.28;5590521;31;34244;-67
2022/11/03 14:19:30;;;;;;;;;;;;;;;11.37;100.00;100865.78;5590177;31;34275;-67
2022/11/03 14:22:44;;;;;;;;;;;;;;;11.46;100.00;100853.34;5590294;31;34548;-68
2022/11/03 14:25:48;;;;;;;;;;;;;;;11.43;100.00;100851.00;5576519;31;34770;-68
2022/11/03 14:29:12;;;;;;;;;;;;;;;11.41;100.00;100855.66;5576377;31;34122;-68
2022/11/03 14:32:17;;;;;;;;;;;;;;;11.46;100.00;100859.50;5576104;31;34352;-69
2022/11/03 14:35:21;;;;;;;;;;;;;;;11.45;100.00;100852.53;5590233;31;34558;-68
2022/11/03 14:38:25;;;;;;;;;;;;;;;11.51;100.00;100841.25;5590077;31;33993;-68
2022/11/03 14:44:50;;;;;;;;;;;;;;;11.41;100.00;100847.69;5590006;31;34787;-69
2022/11/03 14:47:55;;;;;;;;;;;;;;;11.36;100.00;100836.72;5590496;31;34206;-67
2022/11/03 14:50:58;;;;;;;;;;;;;;;11.40;100.00;100838.06;5589500;31;34791;-68
2022/11/03 14:54:02;;;;;;;;;;;;;;;11.41;100.00;100837.91;5575748;31;34219;-68
2022/11/03 14:57:06;;;;;;;;;;;;;;;11.33;100.00;100835.19;5563226;31;35119;-69
2022/11/03 15:00:14;;;;;;;;;;;;;;;11.35;100.00;100827.91;5589674;31;34419;-69
2022/11/03 15:03:18;;;;;;;;;;;;;;;11.33;100.00;100830.72;5589854;31;34327;-69
2022/11/03 15:06:22;;;;;;;;;;;;;;;11.32;100.00;100828.25;5589551;31;34225;-70
2022/11/03 15:09:26;;;;;;;;;;;;;;;11.31;100.00;100823.94;5575564;31;34497;-69
2022/11/03 15:12:30;;;;;;;;;;;;;;;11.19;100.00;100823.37;5589645;31;34156;-67
2022/11/03 15:15:36;;;;;;;;;;;;;;;10.99;100.00;100821.97;5562222;31;35043;-69
2022/11/03 15:18:40;;;;;;;;;;;;;;;10.86;100.00;100822.41;5562626;31;35102;-68
2022/11/03 15:21:43;;;;;;;;;;;;;;;10.46;100.00;100828.31;5589568;31;34636;-68
2022/11/03 15:24:48;;;;;;;;;;;;;;;10.45;100.00;100823.19;5575586;31;34297;-69
2022/11/03 15:28:12;;;;;;;;;;;;;;;10.22;100.00;100814.91;5575437;31;34239;-69
2022/11/03 15:31:15;;;;;;;;;;;;;;;9.97;100.00;100815.69;5589271;31;34762;-69
2022/11/03 15:34:19;;;;;;;;;;;;;;;10.02;100.00;100816.06;5589506;31;34165;-69
2022/11/03 15:37:24;;;;;;;;;;;;;;;9.88;100.00;100813.94;5575197;31;34157;-68
2022/11/03 15:40:29;;;;;;;;;;;;;;;9.88;100.00;100804.16;5575851;31;34226;-69
2022/11/03 15:43:34;;;;;;;;;;;;;;;9.88;100.00;100805.97;5589139;31;34870;-69
2022/11/03 15:46:39;;;;;;;;;;;;;;;9.77;100.00;100800.94;5589372;31;34293;-69
2022/11/03 15:49:46;;;;;;;;;;;;;;;9.77;100.00;100801.78;5588947;31;34259;-68
2022/11/03 15:52:51;;;;;;;;;;;;;;;9.60;100.00;100816.66;5575685;31;34225;-69
2022/11/03 15:55:57;;;;;;;;;;;;;;;9.60;100.00;100815.84;5562022;31;33910;-68
2022/11/03 15:59:00;;;;;;;;;;;;;;;9.60;100.00;100818.47;5575284;31;34319;-70
2022/11/03 16:02:06;;;;;;;;;;;;;;;9.33;100.00;100815.91;5574909;31;34595;-67
2022/11/03 16:05:31;;;;;;;;;;;;;;;9.15;100.00;100816.69;5588897;31;34302;-67
2022/11/03 16:08:36;;;;;;;;;;;;;;;9.17;100.00;100811.25;5588742;31;34788;-68
2022/11/03 16:11:42;;;;;;;;;;;;;;;9.06;100.00;100806.97;5589247;31;34721;-68
2022/11/03 16:14:46;;;;;;;;;;;;;;;9.15;100.00;100805.25;5574904;31;33553;-68
2022/11/03 16:17:51;;;;;;;;;;;;;;;9.23;100.00;100799.22;5588729;31;34117;-68
2022/11/03 16:20:55;;;;;;;;;;;;;;;9.20;100.00;100796.91;5574981;31;34955;-68